Stena Germanica — SKPZ — position and weather

sailwx.info

Track history (hours):
 
Tides and Currents Weather Stations Pressure Air Temp Water Temp Dewpoint Dewpoint Depression Visibility Wind Speed Wind Dir Waves Ship Positions

Stena Germanica

Last reported at 2014-Sep-21 07:33 UTC. Time now 2014-Sep-21 08:08 UTC.
Position N 54°32' E 018°34'.

Length 176 m; draft 6.7 m.

Type: Ship (hazmat cat A). MMSI: 265292000.

Date/timePositionNaut miles runAvg speedWind from/ knotsBaromVisibWave heightAir tempDewpointWater temp
2014-Sep-21 07:33N 54°32' E 018°34'2 2.3
2014-Sep-21 06:32N 54°33' E 018°30'0 0.0
2014-Sep-21 05:33N 54°33' E 018°30'10 9.7
2014-Sep-21 04:34N 54°32' E 018°47'1514.7
2014-Sep-21 03:34N 54°47' E 018°48'1817.6
2014-Sep-21 02:34N 54°59' E 018°26'1818.1
2014-Sep-21 01:34N 55°10' E 018°00'1515.1
2014-Sep-21 00:33N 55°18' E 017°38'1615.6
2014-Sep-20 23:33N 55°27' E 017°15'1717.4
2014-Sep-20 22:33N 55°36' E 016°49'2117.7
2014-Sep-20 21:21N 55°47' E 016°17'1517.6
2014-Sep-20 20:31N 55°56' E 015°56'1616.1
2014-Sep-20 19:33N 56°05' E 015°34'5 4.9
2014-Sep-20 18:32N 56°10' E 015°38'0 0.0
2014-Sep-20 17:32N 56°10' E 015°38'8 8.7
2014-Sep-20 16:34N 56°02' E 015°40'3517.5
2014-Sep-20 14:33N 55°42' E 016°33'1717.5
2014-Sep-20 13:33N 55°33' E 016°59'1717.4
2014-Sep-20 12:34N 55°23' E 017°24'1414.2
2014-Sep-20 11:33N 55°15' E 017°45'1717.3
2014-Sep-20 10:33N 55°07' E 018°11'1717.4
2014-Sep-20 09:33N 54°56' E 018°35'1817.6
2014-Sep-20 08:33N 54°43' E 018°55'1413.6
2014-Sep-20 07:34N 54°32' E 018°41'6 6.0
2014-Sep-20 06:33N 54°33' E 018°30'0 0.0
2014-Sep-20 05:34N 54°33' E 018°30'7 6.7
2014-Sep-20 04:34N 54°32' E 018°42'1211.9
2014-Sep-20 03:34N 54°41' E 018°56'1413.8
2014-Sep-20 02:33N 54°52' E 018°41'1413.7
2014-Sep-20 01:33N 55°01' E 018°23'1413.8
2014-Sep-20 00:33N 55°08' E 018°02'4514.5
2014-Sep-19 21:29N 55°31' E 016°55'1616.7
2014-Sep-19 20:33N 55°39' E 016°31'1716.9
2014-Sep-19 19:33N 55°47' E 016°04'1515.2
2014-Sep-19 18:34N 55°55' E 015°42'1313.2
2014-Sep-19 17:33N 56°08' E 015°36'3 2.5
2014-Sep-19 16:31N 56°10' E 015°38'0 0.0
2014-Sep-19 15:31N 56°10' E 015°38'0 0.0
2014-Sep-19 14:31N 56°10' E 015°38'0 0.0
2014-Sep-19 13:31N 56°10' E 015°38'0 0.0
2014-Sep-19 12:31N 56°10' E 015°38'0 0.0
2014-Sep-19 11:31N 56°10' E 015°38'0 0.0
2014-Sep-19 10:31N 56°10' E 015°38'0 0.0
2014-Sep-19 09:31N 56°10' E 015°38'0 0.0
2014-Sep-19 08:31N 56°10' E 015°38'0 0.0
2014-Sep-19 07:31N 56°10' E 015°38'3 2.7
2014-Sep-19 06:33N 56°08' E 015°36'1413.9
2014-Sep-19 05:34N 55°57' E 015°52'1616.0
2014-Sep-19 04:34N 55°48' E 016°16'1615.9
2014-Sep-19 03:33N 55°40' E 016°39'1716.0
2014-Sep-19 02:30N 55°30' E 017°04'1515.4
2014-Sep-19 01:33N 55°23' E 017°26'1313.2
2014-Sep-19 00:33N 55°15' E 017°45'1817.8
2014-Sep-18 23:33N 55°05' E 018°12'1919.0
2014-Sep-18 22:33N 54°54' E 018°38'1818.2
2014-Sep-18 21:33N 54°39' E 018°57'1413.9
2014-Sep-18 20:33N 54°32' E 018°36'3 3.2
2014-Sep-18 19:33N 54°33' E 018°30'1 0.6
2014-Sep-18 18:34N 54°32' E 018°31'1111.3
2014-Sep-18 17:33N 54°34' E 018°51'1514.9
2014-Sep-18 16:33N 54°49' E 018°51'1717.2
2014-Sep-18 15:33N 54°59' E 018°27'1717.2
2014-Sep-18 14:33N 55°09' E 018°02'1817.4
2014-Sep-18 13:33N 55°19' E 017°37'1717.5
2014-Sep-18 12:33N 55°28' E 017°11'1717.4
2014-Sep-18 11:33N 55°39' E 016°46'1817.6
2014-Sep-18 10:34N 55°48' E 016°20'1817.5
2014-Sep-18 09:34N 55°57' E 015°53'1414.2
2014-Sep-18 08:34N 56°07' E 015°35'3 3.2
2014-Sep-18 07:33N 56°10' E 015°38'0 0.1
2014-Sep-18 06:33N 56°10' E 015°38'1211.6
2014-Sep-18 05:32N 55°59' E 015°47'1816.1
2014-Sep-18 04:25N 55°49' E 016°14'1516.2
2014-Sep-18 03:27N 55°40' E 016°36'1416.0
2014-Sep-18 02:33N 55°33' E 016°58'1916.2
2014-Sep-18 01:24N 55°23' E 017°25'1416.2
2014-Sep-18 00:33N 55°15' E 017°46'1616.1
2014-Sep-17 23:33N 55°07' E 018°10'1616.1
2014-Sep-17 22:33N 54°57' E 018°33'1616.2
2014-Sep-17 21:33N 54°45' E 018°51'1313.5
2014-Sep-17 20:33N 54°32' E 018°48'1110.5
2014-Sep-17 19:33N 54°33' E 018°30'0 0.0
2014-Sep-17 18:31N 54°33' E 018°30'2 2.2
2014-Sep-17 17:33N 54°32' E 018°34'1514.9
2014-Sep-17 16:33N 54°40' E 018°56'1615.8
2014-Sep-17 15:33N 54°54' E 018°43'1717.1
2014-Sep-17 14:33N 55°03' E 018°18'9017.5
2014-Sep-17 09:26N 55°53' E 016°06'1517.4
2014-Sep-17 08:34N 56°01' E 015°43'10 9.5
2014-Sep-17 07:32N 56°10' E 015°38'0 0.0
2014-Sep-17 06:32N 56°10' E 015°38'0 0.1
2014-Sep-17 05:33N 56°10' E 015°38'1212.5
2014-Sep-17 04:33N 55°59' E 015°48'1818.3
2014-Sep-17 03:33N 55°49' E 016°16'2318.5
2014-Sep-17 02:18N 55°36' E 016°50'3218.4
2014-Sep-17 00:33N 55°18' E 017°37'2018.6
2014-Sep-16 23:28N 55°07' E 018°07'1718.5
2014-Sep-16 22:33N 54°58' E 018°32'1918.6
2014-Sep-16 21:33N 54°44' E 018°53'1413.6
2014-Sep-16 20:33N 54°32' E 018°42'7 7.1
2014-Sep-16 19:33N 54°33' E 018°30'0 0.0
2014-Sep-16 18:33N 54°33' E 018°30'1 1.2
2014-Sep-16 17:33N 54°32' E 018°32'1313.3
2014-Sep-16 16:34N 54°37' E 018°54'1515.0
2014-Sep-16 15:34N 54°51' E 018°46'1817.5
2014-Sep-16 14:34N 55°02' E 018°22'1817.5
2014-Sep-16 13:32N 55°11' E 017°56'1817.5
2014-Sep-16 12:32N 55°21' E 017°30'1817.5
2014-Sep-16 11:32N 55°31' E 017°04'5217.6
2014-Sep-16 08:34N 55°59' E 015°46'1211.3
2014-Sep-16 07:32N 56°10' E 015°38'0 0.2
2014-Sep-16 06:31N 56°10' E 015°38'0 0.0
2014-Sep-16 05:34N 56°10' E 015°38'8 8.2
2014-Sep-16 04:33N 56°02' E 015°40'3314.9
2014-Sep-16 02:21N 55°44' E 016°29'1614.9
2014-Sep-16 01:18N 55°35' E 016°52'1114.8
2014-Sep-16 00:33N 55°29' E 017°08'1614.8
2014-Sep-15 23:29N 55°20' E 017°32'1414.9
2014-Sep-15 22:33N 55°13' E 017°52'1514.8
2014-Sep-15 21:33N 55°05' E 018°13'1514.8
2014-Sep-15 20:33N 54°56' E 018°35'1514.8
2014-Sep-15 19:33N 54°45' E 018°52'1312.6
2014-Sep-15 18:33N 54°33' E 018°50'1110.9
2014-Sep-15 17:33N 54°33' E 018°31'0 0.4
2014-Sep-15 16:31N 54°33' E 018°30'0 0.0
2014-Sep-15 15:31N 54°33' E 018°30'0 0.0
2014-Sep-15 14:31N 54°33' E 018°30'0 0.0
2014-Sep-15 13:31N 54°33' E 018°30'0 0.0
2014-Sep-15 12:31N 54°33' E 018°30'0 0.0
2014-Sep-15 11:31N 54°33' E 018°30'0 0.0
2014-Sep-15 10:31N 54°33' E 018°30'0 0.0
2014-Sep-15 09:31N 54°33' E 018°30'0 0.0
2014-Sep-15 08:31N 54°33' E 018°30'0 0.0
2014-Sep-15 07:31N 54°33' E 018°30'1 0.7
2014-Sep-15 06:33N 54°32' E 018°31'1312.7
2014-Sep-15 05:34N 54°36' E 018°52'1313.5
2014-Sep-15 04:33N 54°49' E 018°45'1515.4
2014-Sep-15 03:34N 54°60' E 018°26'1615.7
2014-Sep-15 02:34N 55°08' E 018°03'10311.4
2014-Sep-14 17:34N 56°08' E 015°36'1514.9
2014-Sep-14 16:34N 55°57' E 015°53'1817.6
2014-Sep-14 15:31N 55°46' E 016°20'1717.4
2014-Sep-14 14:32N 55°37' E 016°46'1717.3
2014-Sep-14 13:33N 55°28' E 017°11'1717.6
2014-Sep-14 12:33N 55°19' E 017°37'1817.6
2014-Sep-14 11:33N 55°09' E 018°02'1717.4
2014-Sep-14 10:34N 54°59' E 018°28'1817.6
2014-Sep-14 09:34N 54°47' E 018°49'1514.8
2014-Sep-14 08:34N 54°32' E 018°49'1110.8
2014-Sep-14 07:34N 54°33' E 018°30'0 0.0
2014-Sep-14 06:31N 54°33' E 018°30'1 0.7
2014-Sep-14 05:34N 54°32' E 018°31'1211.6
2014-Sep-14 04:33N 54°35' E 018°51'1514.9
2014-Sep-14 03:33N 54°49' E 018°44'1717.2
2014-Sep-14 02:33N 55°02' E 018°24'1717.0
2014-Sep-14 01:33N 55°11' E 017°59'7417.1
2014-Sep-13 21:15N 55°51' E 016°09'1216.8
2014-Sep-13 20:33N 55°57' E 015°52'1413.7
2014-Sep-13 19:33N 56°07' E 015°35'3 2.8
2014-Sep-13 18:33N 56°10' E 015°38'0 0.0
2014-Sep-13 17:33N 56°10' E 015°38'8 8.2
2014-Sep-13 16:33N 56°02' E 015°40'1918.6
2014-Sep-13 15:32N 55°54' E 016°10'4117.7
2014-Sep-13 13:14N 55°29' E 017°08'1217.8
2014-Sep-13 12:34N 55°23' E 017°26'1817.8
2014-Sep-13 11:34N 55°13' E 017°52'1817.7
2014-Sep-13 10:33N 55°03' E 018°18'1817.7
2014-Sep-13 09:33N 54°52' E 018°42'1616.3
2014-Sep-13 08:33N 54°38' E 018°56'1413.8
2014-Sep-13 07:34N 54°32' E 018°34'2 2.3
2014-Sep-13 06:33N 54°33' E 018°30'0 0.0
2014-Sep-13 05:33N 54°33' E 018°30'5 5.1
2014-Sep-13 04:33N 54°32' E 018°39'1313.2
2014-Sep-13 03:34N 54°41' E 018°56'1515.1
2014-Sep-13 02:33N 54°53' E 018°39'1514.6
2014-Sep-13 01:33N 55°01' E 018°18'1514.5
2014-Sep-13 00:33N 55°08' E 017°55'1413.8
2014-Sep-12 23:33N 55°14' E 017°34'1514.6
2014-Sep-12 22:33N 55°22' E 017°12'1514.5
2014-Sep-12 21:31N 55°29' E 016°48'4314.6
2014-Sep-12 18:33N 55°53' E 015°45'47 2.9
2014-Sep-12 02:32N 55°32' E 016°59'2014.9
2014-Sep-12 01:12N 55°22' E 017°28'1014.9
2014-Sep-12 00:33N 55°16' E 017°43'1514.9
2014-Sep-11 23:33N 55°08' E 018°04'1514.9
2014-Sep-11 22:33N 54°60' E 018°26'1717.2
2014-Sep-11 21:33N 54°48' E 018°47'1414.4
2014-Sep-11 20:33N 54°33' E 018°51'1211.9
2014-Sep-11 19:33N 54°33' E 018°30'0 0.0
2014-Sep-11 18:33N 54°33' E 018°30'8 7.9
2014-Sep-11 17:34N 54°32' E 018°44'1413.8
2014-Sep-11 16:34N 54°46' E 018°49'1717.4
2014-Sep-11 15:34N 54°58' E 018°28'1717.0
2014-Sep-11 14:33N 55°08' E 018°04'8917.8
2014-Sep-11 09:34N 55°57' E 015°53'1413.9
2014-Sep-11 08:33N 56°07' E 015°35'3 3.4
2014-Sep-11 07:34N 56°10' E 015°38'  
Track history (hours):
 
Tides and Currents Weather Stations Pressure Air Temp Water Temp Dewpoint Dewpoint Depression Visibility Wind Speed Wind Dir Waves Ship Positions

Stena Germanica

Last reported at 2014-Sep-21 07:33 UTC. Time now 2014-Sep-21 08:08 UTC.
Position N 54°32' E 018°34'.

Length 176 m; draft 6.7 m.

Type: Ship (hazmat cat A). MMSI: 265292000.

Date/timePositionNaut miles runAvg speedWind from/ knotsBaromVisibWave heightAir tempDewpointWater temp
2014-Sep-21 07:33N 54°32' E 018°34'2 2.3
2014-Sep-21 06:32N 54°33' E 018°30'0 0.0
2014-Sep-21 05:33N 54°33' E 018°30'10 9.7
2014-Sep-21 04:34N 54°32' E 018°47'1514.7
2014-Sep-21 03:34N 54°47' E 018°48'1817.6
2014-Sep-21 02:34N 54°59' E 018°26'1818.1
2014-Sep-21 01:34N 55°10' E 018°00'1515.1
2014-Sep-21 00:33N 55°18' E 017°38'1615.6
2014-Sep-20 23:33N 55°27' E 017°15'1717.4
2014-Sep-20 22:33N 55°36' E 016°49'2117.7
2014-Sep-20 21:21N 55°47' E 016°17'1517.6
2014-Sep-20 20:31N 55°56' E 015°56'1616.1
2014-Sep-20 19:33N 56°05' E 015°34'5 4.9
2014-Sep-20 18:32N 56°10' E 015°38'0 0.0
2014-Sep-20 17:32N 56°10' E 015°38'8 8.7
2014-Sep-20 16:34N 56°02' E 015°40'3517.5
2014-Sep-20 14:33N 55°42' E 016°33'1717.5
2014-Sep-20 13:33N 55°33' E 016°59'1717.4
2014-Sep-20 12:34N 55°23' E 017°24'1414.2
2014-Sep-20 11:33N 55°15' E 017°45'1717.3
2014-Sep-20 10:33N 55°07' E 018°11'1717.4
2014-Sep-20 09:33N 54°56' E 018°35'1817.6
2014-Sep-20 08:33N 54°43' E 018°55'1413.6
2014-Sep-20 07:34N 54°32' E 018°41'6 6.0
2014-Sep-20 06:33N 54°33' E 018°30'0 0.0
2014-Sep-20 05:34N 54°33' E 018°30'7 6.7
2014-Sep-20 04:34N 54°32' E 018°42'1211.9
2014-Sep-20 03:34N 54°41' E 018°56'1413.8
2014-Sep-20 02:33N 54°52' E 018°41'1413.7
2014-Sep-20 01:33N 55°01' E 018°23'1413.8
2014-Sep-20 00:33N 55°08' E 018°02'4514.5
2014-Sep-19 21:29N 55°31' E 016°55'1616.7
2014-Sep-19 20:33N 55°39' E 016°31'1716.9
2014-Sep-19 19:33N 55°47' E 016°04'1515.2
2014-Sep-19 18:34N 55°55' E 015°42'1313.2
2014-Sep-19 17:33N 56°08' E 015°36'3 2.5
2014-Sep-19 16:31N 56°10' E 015°38'0 0.0
2014-Sep-19 15:31N 56°10' E 015°38'0 0.0
2014-Sep-19 14:31N 56°10' E 015°38'0 0.0
2014-Sep-19 13:31N 56°10' E 015°38'0 0.0
2014-Sep-19 12:31N 56°10' E 015°38'0 0.0
2014-Sep-19 11:31N 56°10' E 015°38'0 0.0
2014-Sep-19 10:31N 56°10' E 015°38'0 0.0
2014-Sep-19 09:31N 56°10' E 015°38'0 0.0
2014-Sep-19 08:31N 56°10' E 015°38'0 0.0
2014-Sep-19 07:31N 56°10' E 015°38'3 2.7
2014-Sep-19 06:33N 56°08' E 015°36'1413.9
2014-Sep-19 05:34N 55°57' E 015°52'1616.0
2014-Sep-19 04:34N 55°48' E 016°16'1615.9
2014-Sep-19 03:33N 55°40' E 016°39'1716.0
2014-Sep-19 02:30N 55°30' E 017°04'1515.4
2014-Sep-19 01:33N 55°23' E 017°26'1313.2
2014-Sep-19 00:33N 55°15' E 017°45'1817.8
2014-Sep-18 23:33N 55°05' E 018°12'1919.0
2014-Sep-18 22:33N 54°54' E 018°38'1818.2
2014-Sep-18 21:33N 54°39' E 018°57'1413.9
2014-Sep-18 20:33N 54°32' E 018°36'3 3.2
2014-Sep-18 19:33N 54°33' E 018°30'1 0.6
2014-Sep-18 18:34N 54°32' E 018°31'1111.3
2014-Sep-18 17:33N 54°34' E 018°51'1514.9
2014-Sep-18 16:33N 54°49' E 018°51'1717.2
2014-Sep-18 15:33N 54°59' E 018°27'1717.2
2014-Sep-18 14:33N 55°09' E 018°02'1817.4
2014-Sep-18 13:33N 55°19' E 017°37'1717.5
2014-Sep-18 12:33N 55°28' E 017°11'1717.4
2014-Sep-18 11:33N 55°39' E 016°46'1817.6
2014-Sep-18 10:34N 55°48' E 016°20'1817.5
2014-Sep-18 09:34N 55°57' E 015°53'1414.2
2014-Sep-18 08:34N 56°07' E 015°35'3 3.2
2014-Sep-18 07:33N 56°10' E 015°38'0 0.1
2014-Sep-18 06:33N 56°10' E 015°38'1211.6
2014-Sep-18 05:32N 55°59' E 015°47'1816.1
2014-Sep-18 04:25N 55°49' E 016°14'1516.2
2014-Sep-18 03:27N 55°40' E 016°36'1416.0
2014-Sep-18 02:33N 55°33' E 016°58'1916.2
2014-Sep-18 01:24N 55°23' E 017°25'1416.2
2014-Sep-18 00:33N 55°15' E 017°46'1616.1
2014-Sep-17 23:33N 55°07' E 018°10'1616.1
2014-Sep-17 22:33N 54°57' E 018°33'1616.2
2014-Sep-17 21:33N 54°45' E 018°51'1313.5
2014-Sep-17 20:33N 54°32' E 018°48'1110.5
2014-Sep-17 19:33N 54°33' E 018°30'0 0.0
2014-Sep-17 18:31N 54°33' E 018°30'2 2.2
2014-Sep-17 17:33N 54°32' E 018°34'1514.9
2014-Sep-17 16:33N 54°40' E 018°56'1615.8
2014-Sep-17 15:33N 54°54' E 018°43'1717.1
2014-Sep-17 14:33N 55°03' E 018°18'9017.5
2014-Sep-17 09:26N 55°53' E 016°06'1517.4
2014-Sep-17 08:34N 56°01' E 015°43'10 9.5
2014-Sep-17 07:32N 56°10' E 015°38'0 0.0
2014-Sep-17 06:32N 56°10' E 015°38'0 0.1
2014-Sep-17 05:33N 56°10' E 015°38'1212.5
2014-Sep-17 04:33N 55°59' E 015°48'1818.3
2014-Sep-17 03:33N 55°49' E 016°16'2318.5
2014-Sep-17 02:18N 55°36' E 016°50'3218.4
2014-Sep-17 00:33N 55°18' E 017°37'2018.6
2014-Sep-16 23:28N 55°07' E 018°07'1718.5
2014-Sep-16 22:33N 54°58' E 018°32'1918.6
2014-Sep-16 21:33N 54°44' E 018°53'1413.6
2014-Sep-16 20:33N 54°32' E 018°42'7 7.1
2014-Sep-16 19:33N 54°33' E 018°30'0 0.0
2014-Sep-16 18:33N 54°33' E 018°30'1 1.2
2014-Sep-16 17:33N 54°32' E 018°32'1313.3
2014-Sep-16 16:34N 54°37' E 018°54'1515.0
2014-Sep-16 15:34N 54°51' E 018°46'1817.5
2014-Sep-16 14:34N 55°02' E 018°22'1817.5
2014-Sep-16 13:32N 55°11' E 017°56'1817.5
2014-Sep-16 12:32N 55°21' E 017°30'1817.5
2014-Sep-16 11:32N 55°31' E 017°04'5217.6
2014-Sep-16 08:34N 55°59' E 015°46'1211.3
2014-Sep-16 07:32N 56°10' E 015°38'0 0.2
2014-Sep-16 06:31N 56°10' E 015°38'0 0.0
2014-Sep-16 05:34N 56°10' E 015°38'8 8.2
2014-Sep-16 04:33N 56°02' E 015°40'3314.9
2014-Sep-16 02:21N 55°44' E 016°29'1614.9
2014-Sep-16 01:18N 55°35' E 016°52'1114.8
2014-Sep-16 00:33N 55°29' E 017°08'1614.8
2014-Sep-15 23:29N 55°20' E 017°32'1414.9
2014-Sep-15 22:33N 55°13' E 017°52'1514.8
2014-Sep-15 21:33N 55°05' E 018°13'1514.8
2014-Sep-15 20:33N 54°56' E 018°35'1514.8
2014-Sep-15 19:33N 54°45' E 018°52'1312.6
2014-Sep-15 18:33N 54°33' E 018°50'1110.9
2014-Sep-15 17:33N 54°33' E 018°31'0 0.4
2014-Sep-15 16:31N 54°33' E 018°30'0 0.0
2014-Sep-15 15:31N 54°33' E 018°30'0 0.0
2014-Sep-15 14:31N 54°33' E 018°30'0 0.0
2014-Sep-15 13:31N 54°33' E 018°30'0 0.0
2014-Sep-15 12:31N 54°33' E 018°30'0 0.0
2014-Sep-15 11:31N 54°33' E 018°30'0 0.0
2014-Sep-15 10:31N 54°33' E 018°30'0 0.0
2014-Sep-15 09:31N 54°33' E 018°30'0 0.0
2014-Sep-15 08:31N 54°33' E 018°30'0 0.0
2014-Sep-15 07:31N 54°33' E 018°30'1 0.7
2014-Sep-15 06:33N 54°32' E 018°31'1312.7
2014-Sep-15 05:34N 54°36' E 018°52'1313.5
2014-Sep-15 04:33N 54°49' E 018°45'1515.4
2014-Sep-15 03:34N 54°60' E 018°26'1615.7
2014-Sep-15 02:34N 55°08' E 018°03'10311.4
2014-Sep-14 17:34N 56°08' E 015°36'1514.9
2014-Sep-14 16:34N 55°57' E 015°53'1817.6
2014-Sep-14 15:31N 55°46' E 016°20'1717.4
2014-Sep-14 14:32N 55°37' E 016°46'1717.3
2014-Sep-14 13:33N 55°28' E 017°11'1717.6
2014-Sep-14 12:33N 55°19' E 017°37'1817.6
2014-Sep-14 11:33N 55°09' E 018°02'1717.4
2014-Sep-14 10:34N 54°59' E 018°28'1817.6
2014-Sep-14 09:34N 54°47' E 018°49'1514.8
2014-Sep-14 08:34N 54°32' E 018°49'1110.8
2014-Sep-14 07:34N 54°33' E 018°30'0 0.0
2014-Sep-14 06:31N 54°33' E 018°30'1 0.7
2014-Sep-14 05:34N 54°32' E 018°31'1211.6
2014-Sep-14 04:33N 54°35' E 018°51'1514.9
2014-Sep-14 03:33N 54°49' E 018°44'1717.2
2014-Sep-14 02:33N 55°02' E 018°24'1717.0
2014-Sep-14 01:33N 55°11' E 017°59'7417.1
2014-Sep-13 21:15N 55°51' E 016°09'1216.8
2014-Sep-13 20:33N 55°57' E 015°52'1413.7
2014-Sep-13 19:33N 56°07' E 015°35'3 2.8
2014-Sep-13 18:33N 56°10' E 015°38'0 0.0
2014-Sep-13 17:33N 56°10' E 015°38'8 8.2
2014-Sep-13 16:33N 56°02' E 015°40'1918.6
2014-Sep-13 15:32N 55°54' E 016°10'4117.7
2014-Sep-13 13:14N 55°29' E 017°08'1217.8
2014-Sep-13 12:34N 55°23' E 017°26'1817.8
2014-Sep-13 11:34N 55°13' E 017°52'1817.7
2014-Sep-13 10:33N 55°03' E 018°18'1817.7
2014-Sep-13 09:33N 54°52' E 018°42'1616.3
2014-Sep-13 08:33N 54°38' E 018°56'1413.8
2014-Sep-13 07:34N 54°32' E 018°34'2 2.3
2014-Sep-13 06:33N 54°33' E 018°30'0 0.0
2014-Sep-13 05:33N 54°33' E 018°30'5 5.1
2014-Sep-13 04:33N 54°32' E 018°39'1313.2
2014-Sep-13 03:34N 54°41' E 018°56'1515.1
2014-Sep-13 02:33N 54°53' E 018°39'1514.6
2014-Sep-13 01:33N 55°01' E 018°18'1514.5
2014-Sep-13 00:33N 55°08' E 017°55'1413.8
2014-Sep-12 23:33N 55°14' E 017°34'1514.6
2014-Sep-12 22:33N 55°22' E 017°12'1514.5
2014-Sep-12 21:31N 55°29' E 016°48'4314.6
2014-Sep-12 18:33N 55°53' E 015°45'47 2.9
2014-Sep-12 02:32N 55°32' E 016°59'2014.9
2014-Sep-12 01:12N 55°22' E 017°28'1014.9
2014-Sep-12 00:33N 55°16' E 017°43'1514.9
2014-Sep-11 23:33N 55°08' E 018°04'1514.9
2014-Sep-11 22:33N 54°60' E 018°26'1717.2
2014-Sep-11 21:33N 54°48' E 018°47'1414.4
2014-Sep-11 20:33N 54°33' E 018°51'1211.9
2014-Sep-11 19:33N 54°33' E 018°30'0 0.0
2014-Sep-11 18:33N 54°33' E 018°30'8 7.9
2014-Sep-11 17:34N 54°32' E 018°44'1413.8
2014-Sep-11 16:34N 54°46' E 018°49'1717.4
2014-Sep-11 15:34N 54°58' E 018°28'1717.0
2014-Sep-11 14:33N 55°08' E 018°04'8917.8
2014-Sep-11 09:34N 55°57' E 015°53'1413.9
2014-Sep-11 08:33N 56°07' E 015°35'3 3.4
2014-Sep-11 07:34N 56°10' E 015°38'  

Dump ship's entire track history